createdAt,value
2019-02-16T00:00:49.071Z,7.08
2019-02-16T00:03:18.575Z,7.15
2019-02-16T00:05:48.090Z,6.30
2019-02-16T00:08:17.619Z,6.78
2019-02-16T00:10:47.077Z,6.58
2019-02-16T00:13:16.784Z,7.00
2019-02-16T00:15:46.186Z,6.97
2019-02-16T00:18:15.831Z,6.90
2019-02-16T00:20:45.283Z,7.08
2019-02-16T00:23:14.613Z,6.35
2019-02-16T00:25:44.135Z,6.22
2019-02-16T00:28:15.324Z,6.72
2019-02-16T00:30:46.269Z,6.58
2019-02-16T00:33:15.680Z,6.75
2019-02-16T00:35:44.990Z,7.37
2019-02-16T00:38:14.401Z,7.30
2019-02-16T00:40:43.786Z,7.10
2019-02-16T00:43:13.119Z,6.67
2019-02-16T00:45:42.501Z,6.83
2019-02-16T00:48:11.837Z,7.12
2019-02-16T00:50:41.329Z,6.58
2019-02-16T00:53:10.868Z,6.28
2019-02-16T00:55:40.358Z,7.05
2019-02-16T00:58:09.831Z,7.05
2019-02-16T01:00:39.146Z,7.10
2019-02-16T01:03:08.801Z,6.17
2019-02-16T01:05:38.458Z,6.80
2019-02-16T01:08:08.110Z,7.03
2019-02-16T01:10:37.665Z,6.65
2019-02-16T01:13:07.008Z,6.55
2019-02-16T01:15:36.560Z,6.10
2019-02-16T01:18:05.898Z,7.22
2019-02-16T01:20:35.387Z,6.72
2019-02-16T01:23:04.726Z,5.92
2019-02-16T01:25:34.375Z,6.40
2019-02-16T01:28:03.855Z,6.17
2019-02-16T01:30:33.310Z,7.12
2019-02-16T01:33:04.449Z,6.10
2019-02-16T01:35:33.932Z,6.55
2019-02-16T01:38:03.418Z,6.30
2019-02-16T01:40:32.856Z,5.85
2019-02-16T01:43:02.377Z,6.62
2019-02-16T01:45:31.899Z,6.83
2019-02-16T01:48:01.305Z,6.72
2019-02-16T01:50:30.683Z,5.60
2019-02-16T01:53:00.087Z,6.50
2019-02-16T01:55:29.566Z,6.15
2019-02-16T01:57:59.039Z,6.65
2019-02-16T02:00:28.494Z,6.50
2019-02-16T02:02:57.831Z,6.10
2019-02-16T02:05:27.285Z,6.40
2019-02-16T02:07:56.827Z,5.87
2019-02-16T02:10:26.357Z,5.97
2019-02-16T02:12:55.934Z,6.22
2019-02-16T02:15:25.320Z,6.15
2019-02-16T02:17:54.652Z,5.75
2019-02-16T02:20:25.376Z,5.90
2019-02-16T02:22:54.885Z,6.50
2019-02-16T02:25:24.605Z,6.15
2019-02-16T02:27:54.106Z,5.78
2019-02-16T02:30:23.592Z,6.25
2019-02-16T02:32:52.902Z,5.97
2019-02-16T02:35:22.551Z,5.90
2019-02-16T02:37:52.141Z,6.12
2019-02-16T02:40:21.794Z,6.12
2019-02-16T02:42:51.181Z,6.37
2019-02-16T02:45:20.751Z,5.85
2019-02-16T02:47:50.307Z,5.53
2019-02-16T02:50:19.782Z,6.05
2019-02-16T02:52:49.335Z,5.60
2019-02-16T02:55:18.666Z,5.80
2019-02-16T02:57:48.080Z,6.05
2019-02-16T03:00:17.605Z,5.53
2019-02-16T03:02:47.067Z,5.90
2019-02-16T03:05:16.394Z,6.10
2019-02-16T03:07:45.771Z,6.03
2019-02-16T03:10:15.174Z,6.10
2019-02-16T03:12:44.561Z,6.42
2019-02-16T03:15:13.970Z,5.78
2019-02-16T03:17:43.279Z,5.83
2019-02-16T03:20:12.620Z,5.70
2019-02-16T03:23:14.417Z,5.72
2019-02-16T03:25:51.323Z,5.60
2019-02-16T03:28:34.584Z,5.85
2019-02-16T03:31:43.047Z,5.87
2019-02-16T03:34:28.603Z,6.22
2019-02-16T03:37:23.913Z,5.60
2019-02-16T03:39:53.583Z,5.53
2019-02-16T03:42:23.402Z,6.10
2019-02-16T03:44:53.047Z,5.42
2019-02-16T03:47:22.701Z,5.25
2019-02-16T03:49:52.210Z,5.80
2019-02-16T03:52:21.692Z,5.58
2019-02-16T03:54:51.167Z,5.72
2019-02-16T03:57:20.717Z,5.90
2019-02-16T03:59:50.060Z,6.00
2019-02-16T04:02:19.542Z,6.58
2019-02-16T04:04:49.052Z,5.87
2019-02-16T04:07:18.531Z,6.08
2019-02-16T04:09:48.411Z,5.72
2019-02-16T04:12:17.863Z,6.85
2019-02-16T04:14:47.198Z,6.83
2019-02-16T04:17:16.752Z,6.05
2019-02-16T04:19:46.246Z,6.10
2019-02-16T04:22:24.249Z,6.25
2019-02-16T04:24:48.697Z,5.62
2019-02-16T04:27:18.085Z,6.55
2019-02-16T04:29:47.627Z,5.78
2019-02-16T04:32:17.083Z,6.25
2019-02-16T04:34:46.424Z,6.55
2019-02-16T04:37:15.885Z,6.58
2019-02-16T04:39:45.354Z,6.47
2019-02-16T04:42:14.737Z,6.67
2019-02-16T04:44:44.217Z,6.62
2019-02-16T04:47:13.590Z,6.00
2019-02-16T04:49:43.045Z,5.80
2019-02-16T04:52:12.554Z,6.42
2019-02-16T04:54:42.207Z,7.35
2019-02-16T04:57:13.176Z,6.58
2019-02-16T04:59:42.654Z,6.40
2019-02-16T05:02:12.402Z,6.47
2019-02-16T05:04:42.118Z,6.50
2019-02-16T05:07:11.761Z,5.92
2019-02-16T05:09:41.416Z,5.95
2019-02-16T05:12:10.748Z,6.08
2019-02-16T05:14:40.229Z,5.72
2019-02-16T05:17:09.568Z,6.15
2019-02-16T05:19:39.219Z,5.62
2019-02-16T05:22:08.686Z,6.33
2019-02-16T05:24:40.941Z,5.97
2019-02-16T05:27:10.444Z,5.12
2019-02-16T05:29:39.831Z,5.35
2019-02-16T05:32:09.470Z,5.75
2019-02-16T05:34:38.850Z,6.58
2019-02-16T05:37:08.382Z,5.33
2019-02-16T05:39:37.833Z,5.65
2019-02-16T05:42:07.172Z,5.37
2019-02-16T05:44:36.550Z,5.37
2019-02-16T05:47:05.950Z,5.67
2019-02-16T05:49:35.333Z,6.20
2019-02-16T05:52:04.805Z,5.35
2019-02-16T05:54:34.259Z,7.17
2019-02-16T05:57:03.592Z,6.85
2019-02-16T05:59:32.978Z,6.12
2019-02-16T06:02:02.318Z,5.83
2019-02-16T06:04:31.761Z,5.60
2019-02-16T06:07:01.164Z,6.03
2019-02-16T06:09:30.617Z,5.58
2019-02-16T06:12:00.120Z,5.83
2019-02-16T06:14:29.566Z,5.83
2019-02-16T06:16:58.898Z,5.45
2019-02-16T06:19:28.214Z,5.90
2019-02-16T06:21:57.757Z,5.47
2019-02-16T06:24:27.202Z,5.45
2019-02-16T06:26:56.534Z,5.75
2019-02-16T06:29:26.024Z,5.67
2019-02-16T06:31:55.352Z,4.50
2019-02-16T06:34:28.336Z,5.20
2019-02-16T06:36:57.969Z,4.90
2019-02-16T06:39:27.344Z,5.22
2019-02-16T06:41:56.963Z,6.35
2019-02-16T06:44:26.511Z,5.80
2019-02-16T06:46:55.851Z,8.48
2019-02-16T06:49:25.352Z,8.93
2019-02-16T06:51:54.676Z,7.70
2019-02-16T06:54:24.228Z,7.78
2019-02-16T06:57:01.537Z,6.58
2019-02-16T06:59:31.025Z,7.20
2019-02-16T07:02:00.358Z,6.87
2019-02-16T07:04:29.820Z,7.10
2019-02-16T07:06:59.305Z,6.58
2019-02-16T07:09:28.749Z,5.97
2019-02-16T07:11:58.065Z,5.90
2019-02-16T07:14:27.471Z,6.40
2019-02-16T07:16:58.591Z,6.75
2019-02-16T07:19:29.710Z,6.00
2019-02-16T07:21:59.533Z,5.30
2019-02-16T07:24:29.009Z,6.35
2019-02-16T07:26:58.459Z,6.70
2019-02-16T07:29:27.933Z,6.22
2019-02-16T07:31:57.585Z,6.67
2019-02-16T07:34:27.001Z,7.00
2019-02-16T07:36:56.587Z,6.60
2019-02-16T07:39:26.082Z,6.35
2019-02-16T07:41:57.305Z,7.15
2019-02-16T07:44:30.957Z,7.10
2019-02-16T07:47:18.006Z,6.50
2019-02-16T07:49:59.513Z,6.72
2019-02-16T07:52:33.491Z,6.95
2019-02-16T07:57:40.675Z,6.70
2019-02-16T08:00:11.825Z,6.55
2019-02-16T08:02:42.955Z,7.87
2019-02-16T08:05:13.913Z,8.00
2019-02-16T08:07:47.836Z,9.28
2019-02-16T08:10:34.198Z,8.15
2019-02-16T08:13:11.318Z,7.80
2019-02-16T08:15:47.854Z,6.90
2019-02-16T08:18:27.906Z,6.78
2019-02-16T08:21:08.073Z,7.03
2019-02-16T08:23:40.570Z,7.65
2019-02-16T08:26:20.825Z,7.78
2019-02-16T08:28:52.016Z,7.92
2019-02-16T08:31:26.737Z,7.67
2019-02-16T08:34:01.049Z,7.00
2019-02-16T08:36:40.871Z,7.75
2019-02-16T08:39:12.238Z,7.42
2019-02-16T08:41:43.923Z,7.75
2019-02-16T08:44:15.038Z,7.47
2019-02-16T08:46:58.466Z,8.05
2019-02-16T08:49:38.144Z,7.67
2019-02-16T08:52:09.232Z,7.95
2019-02-16T08:54:43.283Z,6.75
2019-02-16T09:00:08.193Z,7.78
2019-02-16T09:02:51.553Z,7.58
2019-02-16T09:05:25.454Z,7.20
2019-02-16T09:08:05.678Z,8.43
2019-02-16T09:10:36.828Z,7.15
2019-02-16T09:13:07.956Z,8.08
2019-02-16T09:15:41.834Z,8.38
2019-02-16T09:18:12.791Z,8.05
2019-02-16T09:20:46.663Z,7.50
2019-02-16T09:23:29.674Z,7.17
2019-02-16T09:26:12.912Z,7.58
2019-02-16T09:28:43.885Z,6.95
2019-02-16T09:31:30.933Z,7.40
2019-02-16T09:34:14.061Z,8.15
2019-02-16T09:36:51.067Z,7.20
2019-02-16T09:39:22.265Z,7.35
2019-02-16T09:41:56.527Z,8.05
2019-02-16T09:44:27.720Z,8.15
2019-02-16T09:47:12.096Z,7.87
2019-02-16T09:52:24.597Z,8.23
2019-02-16T09:54:55.624Z,7.83
2019-02-16T09:57:35.527Z,8.45
2019-02-16T10:00:14.017Z,8.13
2019-02-16T10:03:01.454Z,8.05
2019-02-16T10:05:48.322Z,7.42
2019-02-16T10:08:19.325Z,7.47
2019-02-16T10:10:53.459Z,7.95
2019-02-16T10:15:58.150Z,7.58
2019-02-16T10:18:32.195Z,8.75
2019-02-16T10:24:01.061Z,6.80
2019-02-16T10:26:32.139Z,7.15
2019-02-16T10:29:11.839Z,6.62
2019-02-16T10:31:42.933Z,6.75
2019-02-16T10:34:20.254Z,6.62
2019-02-16T10:36:51.622Z,7.03
2019-02-16T10:39:25.499Z,6.85
2019-02-16T10:42:08.875Z,6.45
2019-02-16T10:44:45.542Z,6.58
2019-02-16T10:47:32.520Z,6.30
2019-02-16T10:50:09.786Z,7.42
2019-02-16T10:52:45.185Z,6.30
2019-02-16T10:55:22.287Z,6.00
2019-02-16T10:57:56.373Z,6.75
2019-02-16T11:03:15.808Z,6.40
2019-02-16T11:05:56.162Z,6.58
2019-02-16T11:08:28.746Z,6.85
2019-02-16T11:11:05.452Z,7.08
2019-02-16T11:13:42.096Z,7.08
2019-02-16T11:16:19.104Z,7.30
2019-02-16T11:18:52.910Z,8.38
2019-02-16T11:21:26.811Z,7.00
2019-02-16T11:24:13.238Z,7.28
2019-02-16T11:26:44.429Z,6.97
2019-02-16T11:29:13.582Z,7.75
2019-02-16T11:31:47.670Z,7.35
2019-02-16T11:34:30.703Z,7.55
2019-02-16T11:37:04.670Z,6.85
2019-02-16T11:39:40.019Z,6.87
2019-02-16T11:42:30.855Z,7.42
2019-02-16T11:45:04.419Z,7.40
2019-02-16T11:47:39.838Z,7.08
2019-02-16T11:50:26.063Z,7.00
2019-02-16T11:53:13.405Z,6.87
2019-02-16T11:56:00.795Z,6.85
2019-02-16T11:58:41.162Z,6.62
2019-02-16T12:01:16.346Z,7.70
2019-02-16T12:04:03.852Z,7.05
2019-02-16T12:06:42.599Z,7.33
2019-02-16T12:09:13.892Z,6.03
2019-02-16T12:11:48.911Z,6.33
2019-02-16T12:14:37.691Z,7.30
2019-02-16T12:17:08.839Z,6.87
2019-02-16T12:19:52.066Z,6.40
2019-02-16T12:22:23.124Z,6.80
2019-02-16T12:25:05.400Z,7.22
2019-02-16T12:27:47.197Z,7.45
2019-02-16T12:30:24.067Z,7.15
2019-02-16T12:33:00.853Z,7.50
2019-02-16T12:35:43.471Z,7.30
2019-02-16T12:38:17.011Z,8.00
2019-02-16T12:40:54.913Z,7.37
2019-02-16T12:43:24.145Z,7.55
2019-02-16T12:46:11.276Z,7.30
2019-02-16T12:48:57.330Z,7.45
2019-02-16T12:51:43.372Z,7.45
2019-02-16T12:54:26.643Z,7.05
2019-02-16T12:57:03.199Z,8.10
2019-02-16T12:59:34.212Z,7.60
2019-02-16T13:02:12.292Z,8.43
2019-02-16T13:04:49.081Z,8.08
2019-02-16T13:07:32.148Z,7.30
2019-02-16T13:10:12.265Z,7.12
2019-02-16T13:12:46.327Z,7.65
2019-02-16T13:15:20.567Z,6.72
2019-02-16T13:17:57.779Z,7.10
2019-02-16T13:20:26.865Z,7.72
2019-02-16T13:23:00.945Z,7.62
2019-02-16T13:25:34.468Z,6.67
2019-02-16T13:28:08.604Z,10.73
2019-02-16T13:30:51.621Z,9.65
2019-02-16T13:33:22.731Z,8.45
2019-02-16T13:36:02.781Z,5.60
2019-02-16T13:38:33.987Z,6.47
2019-02-16T13:41:08.013Z,5.17
2019-02-16T13:43:40.498Z,6.08
2019-02-16T13:46:09.678Z,5.30
2019-02-16T13:48:43.673Z,4.85
2019-02-16T13:51:30.813Z,4.35
2019-02-16T13:54:17.375Z,5.33
2019-02-16T13:56:51.349Z,4.10
2019-02-16T13:59:38.389Z,7.97
2019-02-16T14:02:09.453Z,3.37
2019-02-16T14:04:52.822Z,2.47
2019-02-16T14:07:23.805Z,3.90
2019-02-16T14:10:04.898Z,4.55
2019-02-16T14:12:36.025Z,4.60
2019-02-16T14:15:11.687Z,5.50
2019-02-16T14:17:42.880Z,5.80
2019-02-16T14:20:12.268Z,6.40
2019-02-16T14:22:41.689Z,6.40
2019-02-16T14:25:12.721Z,6.92
2019-02-16T14:27:42.132Z,6.90
2019-02-16T14:30:13.334Z,6.47
2019-02-16T14:32:42.897Z,6.70
2019-02-16T14:35:12.287Z,5.20
2019-02-16T14:37:46.075Z,4.28
2019-02-16T14:40:15.392Z,5.17
2019-02-16T14:42:44.733Z,4.55
2019-02-16T14:45:15.863Z,4.33
2019-02-16T14:47:45.321Z,5.00
2019-02-16T14:50:16.760Z,4.60
2019-02-16T14:52:45.852Z,4.95
2019-02-16T14:55:19.340Z,5.08
2019-02-16T14:57:48.658Z,5.70
2019-02-16T15:00:18.008Z,7.53
2019-02-16T15:02:47.388Z,5.62
2019-02-16T15:05:16.807Z,5.22
2019-02-16T15:07:46.191Z,5.05
2019-02-16T15:10:15.756Z,4.67
2019-02-16T15:12:45.244Z,5.00
2019-02-16T15:15:14.703Z,5.00
2019-02-16T15:17:44.121Z,4.33
2019-02-16T15:20:16.255Z,5.10
2019-02-16T15:22:45.763Z,4.60
2019-02-16T15:25:16.127Z,5.05
2019-02-16T15:27:45.456Z,4.45
2019-02-16T15:30:20.414Z,8.80
2019-02-16T15:32:49.766Z,6.28
2019-02-16T15:35:20.573Z,8.80
2019-02-16T15:37:50.064Z,5.10
2019-02-16T15:40:19.550Z,5.03
2019-02-16T15:42:48.872Z,5.55
2019-02-16T15:45:18.285Z,5.20
2019-02-16T15:47:47.602Z,5.53
2019-02-16T15:50:16.954Z,5.15
2019-02-16T15:52:46.410Z,4.85
2019-02-16T15:55:15.762Z,5.33
2019-02-16T15:57:45.157Z,6.03
2019-02-16T16:00:18.069Z,4.95
2019-02-16T16:02:47.519Z,4.97
2019-02-16T16:05:16.864Z,5.10
2019-02-16T16:07:48.209Z,5.25
2019-02-16T16:10:19.318Z,4.97
2019-02-16T16:12:52.987Z,4.67
2019-02-16T16:15:31.223Z,9.38
2019-02-16T16:18:02.257Z,5.72
2019-02-16T16:20:33.240Z,6.75
2019-02-16T16:23:04.204Z,5.15
2019-02-16T16:25:35.372Z,4.37
2019-02-16T16:28:22.386Z,4.33
2019-02-16T16:30:53.440Z,4.70
2019-02-16T16:33:24.396Z,4.60
2019-02-16T16:35:55.588Z,4.80
2019-02-16T16:38:29.884Z,4.67
2019-02-16T16:43:31.840Z,4.30
2019-02-16T16:46:02.862Z,4.62
2019-02-16T16:48:36.563Z,4.40
2019-02-16T16:51:11.765Z,4.30
2019-02-16T16:53:42.815Z,4.10
2019-02-16T16:56:28.751Z,4.28
2019-02-16T16:58:53.661Z,4.03
2019-02-16T17:01:27.530Z,4.15
2019-02-16T17:03:58.501Z,3.90
2019-02-16T17:06:36.807Z,3.62
2019-02-16T17:09:25.887Z,4.55
2019-02-16T17:12:13.491Z,4.20
2019-02-16T17:14:56.208Z,3.95
2019-02-16T17:17:27.249Z,3.87
2019-02-16T17:19:58.346Z,5.33
2019-02-16T17:22:30.664Z,5.25
2019-02-16T17:25:17.824Z,5.25
2019-02-16T17:27:54.584Z,5.40
2019-02-16T17:30:32.663Z,6.08
2019-02-16T17:33:12.606Z,7.05
2019-02-16T17:35:43.597Z,6.75
2019-02-16T17:38:32.945Z,6.62
2019-02-16T17:41:13.159Z,7.42
2019-02-16T17:43:57.614Z,7.33
2019-02-16T17:46:45.151Z,7.25
2019-02-16T17:49:21.930Z,7.65
2019-02-16T17:52:05.197Z,7.40
2019-02-16T17:54:37.470Z,6.80
2019-02-16T17:57:20.111Z,7.90
2019-02-16T17:59:54.170Z,7.50
2019-02-16T18:02:25.266Z,7.60
2019-02-16T18:05:05.205Z,8.40
2019-02-16T18:07:39.166Z,7.95
2019-02-16T18:10:13.016Z,8.33
2019-02-16T18:12:44.038Z,8.70
2019-02-16T18:15:18.050Z,8.10
2019-02-16T18:18:07.427Z,8.13
2019-02-16T18:20:55.070Z,7.78
2019-02-16T18:23:31.489Z,8.40
2019-02-16T18:26:17.869Z,7.72
2019-02-16T18:28:57.016Z,8.40
2019-02-16T18:31:21.918Z,8.55
2019-02-16T18:33:55.947Z,8.75
2019-02-16T18:36:43.221Z,10.80
2019-02-16T18:39:30.781Z,10.03
2019-02-16T18:42:07.760Z,10.03
2019-02-16T18:44:36.987Z,10.93
2019-02-16T18:47:23.935Z,12.05
2019-02-16T18:49:57.561Z,11.03
2019-02-16T18:52:44.766Z,10.78
2019-02-16T18:55:25.902Z,9.40
2019-02-16T18:57:59.337Z,11.03
2019-02-16T19:00:33.028Z,11.80
2019-02-16T19:03:14.473Z,11.97
2019-02-16T19:06:00.707Z,10.50
2019-02-16T19:08:45.108Z,9.85
2019-02-16T19:11:31.406Z,10.80
2019-02-16T19:14:08.313Z,9.83
2019-02-16T19:16:52.347Z,9.33
2019-02-16T19:19:23.464Z,10.00
2019-02-16T19:21:54.438Z,9.80
2019-02-16T19:24:31.014Z,9.35
2019-02-16T19:27:04.998Z,11.15
2019-02-16T19:29:36.140Z,10.28
2019-02-16T19:32:07.230Z,11.12
2019-02-16T19:34:47.225Z,12.63
2019-02-16T19:37:18.356Z,14.83
2019-02-16T19:39:49.503Z,13.75
2019-02-16T19:42:39.172Z,12.68
2019-02-16T19:45:13.594Z,11.20
2019-02-16T19:47:47.663Z,10.32
2019-02-16T19:50:16.888Z,10.90
2019-02-16T19:52:48.010Z,10.43
2019-02-16T19:55:19.016Z,11.48
2019-02-16T19:57:50.134Z,12.37
2019-02-16T20:00:21.429Z,13.48
2019-02-16T20:02:52.793Z,13.62
2019-02-16T20:05:35.954Z,13.65
2019-02-16T20:08:10.223Z,12.25
2019-02-16T20:10:44.110Z,12.50
2019-02-16T20:13:31.912Z,12.30
2019-02-16T20:16:05.792Z,13.80
2019-02-16T20:18:39.222Z,12.47
2019-02-16T20:21:12.823Z,11.63
2019-02-16T20:23:43.956Z,11.50
2019-02-16T20:26:32.861Z,11.28
2019-02-16T20:29:03.818Z,13.35
2019-02-16T20:31:34.880Z,12.35
2019-02-16T20:34:10.194Z,11.78
2019-02-16T20:36:42.633Z,10.32
2019-02-16T20:39:30.015Z,11.70
2019-02-16T20:42:09.615Z,11.15
2019-02-16T20:44:40.577Z,12.58
2019-02-16T20:47:20.347Z,12.23
2019-02-16T20:49:53.808Z,13.08
2019-02-16T20:52:40.135Z,12.58
2019-02-16T20:55:11.127Z,12.07
2019-02-16T20:57:48.392Z,11.78
2019-02-16T21:00:18.706Z,12.73
2019-02-16T21:02:49.688Z,11.78
2019-02-16T21:05:29.765Z,13.03
2019-02-16T21:08:11.209Z,11.78
2019-02-16T21:10:51.428Z,11.30
2019-02-16T21:13:26.637Z,11.75
2019-02-16T21:16:00.901Z,13.30
2019-02-16T21:18:34.411Z,12.55
2019-02-16T21:21:08.501Z,13.93
2019-02-16T21:26:22.175Z,11.63
2019-02-16T21:31:33.102Z,12.40
2019-02-16T21:34:04.267Z,11.55
2019-02-16T21:36:47.420Z,12.82
2019-02-16T21:39:18.582Z,12.88
2019-02-16T21:41:49.532Z,12.30
2019-02-16T21:44:35.588Z,13.35
2019-02-16T21:47:09.627Z,13.13
2019-02-16T21:49:46.129Z,12.88
2019-02-16T21:52:18.896Z,13.32
2019-02-16T21:54:52.978Z,13.70
2019-02-16T21:57:40.334Z,13.10
2019-02-16T22:00:24.419Z,12.37
2019-02-16T22:02:55.466Z,13.28
2019-02-16T22:05:27.134Z,11.65
2019-02-16T22:07:58.270Z,11.97
2019-02-16T22:10:41.424Z,11.73
2019-02-16T22:13:10.746Z,11.43
2019-02-16T22:15:40.468Z,11.63
2019-02-16T22:18:10.017Z,12.40
2019-02-16T22:20:39.470Z,11.73
2019-02-16T22:23:09.225Z,12.05
2019-02-16T22:25:38.609Z,11.80
2019-02-16T22:28:17.926Z,11.08
2019-02-16T22:30:39.361Z,11.53
2019-02-16T22:33:09.042Z,12.10
2019-02-16T22:35:38.530Z,12.37
2019-02-16T22:38:08.010Z,12.18
2019-02-16T22:40:37.565Z,11.78
2019-02-16T22:43:07.499Z,11.50
2019-02-16T22:45:36.987Z,11.00
2019-02-16T22:48:06.607Z,11.03
2019-02-16T22:50:36.257Z,9.58
2019-02-16T22:53:05.574Z,9.43
2019-02-16T22:55:36.547Z,9.58
2019-02-16T22:58:06.166Z,10.40
2019-02-16T23:00:37.458Z,9.63
2019-02-16T23:03:07.909Z,9.98
2019-02-16T23:05:37.260Z,10.28
2019-02-16T23:08:06.713Z,10.20
2019-02-16T23:10:36.058Z,9.93
2019-02-16T23:13:05.578Z,11.08
2019-02-16T23:15:35.059Z,10.03
2019-02-16T23:18:04.581Z,9.75
2019-02-16T23:20:34.079Z,10.15
2019-02-16T23:23:03.738Z,8.65
2019-02-16T23:25:33.194Z,9.60
2019-02-16T23:28:02.606Z,9.15
2019-02-16T23:30:32.063Z,9.25
2019-02-16T23:33:01.543Z,9.48
2019-02-16T23:35:31.094Z,9.10
2019-02-16T23:38:00.496Z,9.18
2019-02-16T23:40:29.877Z,9.15
2019-02-16T23:43:02.023Z,8.30
2019-02-16T23:45:31.573Z,9.65
2019-02-16T23:48:01.087Z,9.55
2019-02-16T23:50:30.613Z,9.35
2019-02-16T23:53:00.310Z,8.73
2019-02-16T23:55:29.790Z,9.28
2019-02-16T23:57:59.109Z,9.20
